createdAt,value
2024-01-16T00:02:18.365Z,-1.20
2024-01-16T00:07:41.560Z,-1.20
2024-01-16T00:13:03.092Z,-1.20
2024-01-16T00:18:25.211Z,-1.10
2024-01-16T00:23:46.709Z,-1.20
2024-01-16T00:29:08.444Z,-1.10
2024-01-16T00:34:30.174Z,-1.10
2024-01-16T00:39:51.629Z,-1.10
2024-01-16T00:45:13.387Z,-1.10
2024-01-16T00:50:34.791Z,-1.00
2024-01-16T00:55:56.377Z,-1.10
2024-01-16T01:01:17.994Z,-1.00
2024-01-16T01:06:39.911Z,-1.00
2024-01-16T01:12:01.400Z,-0.90
2024-01-16T01:17:23.154Z,-0.90
2024-01-16T01:22:45.978Z,-0.80
2024-01-16T01:28:07.324Z,-0.80
2024-01-16T01:33:29.000Z,-0.80
2024-01-16T01:38:50.486Z,-0.60
2024-01-16T01:44:17.662Z,-0.70
2024-01-16T01:49:39.759Z,-0.60
2024-01-16T01:55:03.058Z,-0.60
2024-01-16T02:00:24.916Z,-0.60
2024-01-16T02:05:47.308Z,-0.60
2024-01-16T02:11:09.189Z,-0.50
2024-01-16T02:16:39.976Z,-0.60
2024-01-16T02:22:05.036Z,-0.50
2024-01-16T02:27:26.581Z,-0.50
2024-01-16T02:32:48.297Z,-0.50
2024-01-16T02:38:09.968Z,-0.50
2024-01-16T02:43:31.799Z,-0.40
2024-01-16T02:48:53.470Z,-0.30
2024-01-16T02:54:15.502Z,-0.40
2024-01-16T02:59:37.275Z,-0.50
2024-01-16T03:04:58.713Z,-0.40
2024-01-16T03:10:20.315Z,-0.40
2024-01-16T03:15:42.274Z,-0.30
2024-01-16T03:21:04.582Z,-0.30
2024-01-16T03:26:25.971Z,-0.40
2024-01-16T03:31:47.427Z,-0.40
2024-01-16T03:37:08.942Z,-0.40
2024-01-16T03:42:30.491Z,-0.30
2024-01-16T03:47:52.198Z,-0.40
2024-01-16T03:53:14.168Z,-0.30
2024-01-16T03:58:35.984Z,-0.30
2024-01-16T04:03:57.594Z,-0.40
2024-01-16T04:09:18.967Z,-0.40
2024-01-16T04:14:41.406Z,-0.30
2024-01-16T04:20:03.176Z,-0.40
2024-01-16T04:25:24.693Z,-0.40
2024-01-16T04:30:46.439Z,-0.30
2024-01-16T04:36:11.267Z,-0.30
2024-01-16T04:41:32.846Z,-0.30
2024-01-16T04:46:55.881Z,-0.30
2024-01-16T04:52:20.253Z,-0.20
2024-01-16T04:57:42.383Z,-0.30
2024-01-16T05:03:06.619Z,-0.40
2024-01-16T05:08:28.273Z,-0.60
2024-01-16T05:13:49.766Z,-0.60
2024-01-16T05:19:11.448Z,-0.60
2024-01-16T05:24:32.910Z,-0.60
2024-01-16T05:29:54.483Z,-0.70
2024-01-16T05:35:16.071Z,-0.70
2024-01-16T05:40:37.472Z,-0.80
2024-01-16T05:45:59.210Z,-0.80
2024-01-16T05:51:21.080Z,-0.80
2024-01-16T05:56:42.880Z,-0.90
2024-01-16T06:02:04.421Z,-0.90
2024-01-16T06:07:25.928Z,-0.90
2024-01-16T06:12:47.499Z,-1.00
2024-01-16T06:18:10.398Z,-0.90
2024-01-16T06:23:31.897Z,-1.00
2024-01-16T06:28:53.518Z,-1.00
2024-01-16T06:34:15.081Z,-1.00
2024-01-16T06:39:37.513Z,-1.10
2024-01-16T06:44:59.304Z,-1.10
2024-01-16T06:50:20.960Z,-1.20
2024-01-16T06:55:42.431Z,-1.20
2024-01-16T07:01:05.466Z,-1.20
2024-01-16T07:06:27.240Z,-1.10
2024-01-16T07:11:49.569Z,-1.20
2024-01-16T07:17:11.068Z,-1.30
2024-01-16T07:22:32.547Z,-1.40
2024-01-16T07:27:54.144Z,-1.50
2024-01-16T07:33:15.988Z,-1.50
2024-01-16T07:38:37.772Z,-1.60
2024-01-16T07:43:59.297Z,-1.50
2024-01-16T07:49:20.828Z,-1.70
2024-01-16T07:54:42.364Z,-1.50
2024-01-16T08:00:04.766Z,-1.70
2024-01-16T08:05:29.065Z,-1.70
2024-01-16T08:10:50.801Z,-1.50
2024-01-16T08:16:12.616Z,-1.40
2024-01-16T08:21:33.889Z,-1.30
2024-01-16T08:26:58.596Z,-1.20
2024-01-16T08:32:23.198Z,-1.20
2024-01-16T08:37:44.814Z,-1.10
2024-01-16T08:43:06.551Z,-1.00
2024-01-16T08:48:28.179Z,-1.00
2024-01-16T08:53:50.079Z,-0.90
2024-01-16T08:59:11.790Z,-0.90
2024-01-16T09:04:33.276Z,-0.90
2024-01-16T09:09:55.142Z,-0.80
2024-01-16T09:15:16.838Z,-0.70
2024-01-16T09:20:38.226Z,-0.60
2024-01-16T09:25:59.823Z,-0.70
2024-01-16T09:31:21.362Z,-0.60
2024-01-16T09:36:42.871Z,-0.70
2024-01-16T09:42:05.087Z,-0.50
2024-01-16T09:47:26.859Z,-0.50
2024-01-16T09:52:49.217Z,-0.50
2024-01-16T09:58:15.717Z,-0.40
2024-01-16T10:03:37.579Z,-0.10
2024-01-16T10:09:00.647Z,-0.10
2024-01-16T10:14:22.639Z,-0.20
2024-01-16T10:19:54.529Z,0.00
2024-01-16T10:25:21.346Z,-0.10
2024-01-16T10:30:42.952Z,0.00
2024-01-16T10:36:13.702Z,0.10
2024-01-16T10:41:35.391Z,0.40
2024-01-16T10:47:13.321Z,0.50
2024-01-16T10:52:36.930Z,0.50
2024-01-16T10:58:01.879Z,0.50
2024-01-16T11:03:29.545Z,0.50
2024-01-16T11:08:52.941Z,0.60
2024-01-16T11:14:18.432Z,0.50
2024-01-16T11:19:49.667Z,0.40
2024-01-16T11:25:22.253Z,0.50
2024-01-16T11:30:45.447Z,0.60
2024-01-16T11:36:26.835Z,0.60
2024-01-16T11:41:55.536Z,0.80
2024-01-16T11:47:19.516Z,1.00
2024-01-16T11:52:46.042Z,1.00
2024-01-16T11:58:19.460Z,1.00
2024-01-16T12:03:40.912Z,0.90
2024-01-16T12:09:32.053Z,0.80
2024-01-16T12:14:54.910Z,1.00
2024-01-16T12:20:21.401Z,0.90
2024-01-16T12:26:01.441Z,0.80
2024-01-16T12:31:25.813Z,0.80
2024-01-16T12:36:47.144Z,0.70
2024-01-16T12:42:11.002Z,0.80
2024-01-16T12:47:32.613Z,0.60
2024-01-16T12:53:11.858Z,0.80
2024-01-16T12:58:37.505Z,0.80
2024-01-16T13:04:04.436Z,0.70
2024-01-16T13:09:27.571Z,0.80
2024-01-16T13:14:49.133Z,0.80
2024-01-16T13:20:11.648Z,0.70
2024-01-16T13:25:33.506Z,0.80
2024-01-16T13:30:55.150Z,0.60
2024-01-16T13:36:18.482Z,0.60
2024-01-16T13:41:45.816Z,0.50
2024-01-16T13:47:11.662Z,0.80
2024-01-16T13:52:37.156Z,0.80
2024-01-16T13:57:59.523Z,0.80
2024-01-16T14:03:22.388Z,1.00
2024-01-16T14:08:44.464Z,0.90
2024-01-16T14:14:06.515Z,0.70
2024-01-16T14:19:28.824Z,0.80
2024-01-16T14:24:52.370Z,0.70
2024-01-16T14:30:16.530Z,0.80
2024-01-16T14:35:39.215Z,0.80
2024-01-16T14:41:00.717Z,0.70
2024-01-16T14:46:24.385Z,0.70
2024-01-16T14:51:46.447Z,0.40
2024-01-16T14:57:08.504Z,0.50
2024-01-16T15:02:30.452Z,0.30
2024-01-16T15:07:55.443Z,0.30
2024-01-16T15:13:17.047Z,0.30
2024-01-16T15:18:38.869Z,0.30
2024-01-16T15:24:00.765Z,0.10
2024-01-16T15:29:22.395Z,0.00
2024-01-16T15:34:44.011Z,0.00
2024-01-16T15:40:08.079Z,0.00
2024-01-16T15:45:29.829Z,-0.20
2024-01-16T15:51:13.607Z,-0.20
2024-01-16T15:56:35.118Z,-0.20
2024-01-16T16:01:57.068Z,-0.30
2024-01-16T16:07:19.778Z,-0.30
2024-01-16T16:12:41.531Z,-0.40
2024-01-16T16:18:03.509Z,-0.40
2024-01-16T16:23:25.281Z,-0.50
2024-01-16T16:28:46.815Z,-0.50
2024-01-16T16:34:15.859Z,-0.60
2024-01-16T16:39:37.602Z,-0.50
2024-01-16T16:45:00.492Z,-0.40
2024-01-16T16:50:22.069Z,-0.50
2024-01-16T16:55:43.563Z,-0.40
2024-01-16T17:01:05.534Z,-0.40
2024-01-16T17:06:27.361Z,-0.50
2024-01-16T17:11:49.216Z,-0.50
2024-01-16T17:17:12.489Z,-0.40
2024-01-16T17:22:34.293Z,-0.50
2024-01-16T17:27:55.888Z,-0.60
2024-01-16T17:33:17.860Z,-0.60
2024-01-16T17:38:42.877Z,-0.60
2024-01-16T17:44:05.585Z,-0.70
2024-01-16T17:49:27.035Z,-0.70
2024-01-16T17:54:48.578Z,-0.80
2024-01-16T18:00:11.000Z,-0.70
2024-01-16T18:05:34.290Z,-0.90
2024-01-16T18:10:56.546Z,-1.00
2024-01-16T18:16:18.776Z,-0.90
2024-01-16T18:21:40.274Z,-1.10
2024-01-16T18:27:01.823Z,-1.20
2024-01-16T18:32:23.401Z,-1.40
2024-01-16T18:37:45.076Z,-1.50
2024-01-16T18:43:09.030Z,-1.50
2024-01-16T18:48:31.149Z,-1.50
2024-01-16T18:53:53.770Z,-1.60
2024-01-16T18:59:15.388Z,-1.80
2024-01-16T19:04:38.202Z,-1.80
2024-01-16T19:10:03.196Z,-1.90
2024-01-16T19:15:24.608Z,-2.10
2024-01-16T19:20:46.229Z,-2.30
2024-01-16T19:26:09.641Z,-2.30
2024-01-16T19:31:35.483Z,-2.30
2024-01-16T19:36:57.199Z,-2.40
2024-01-16T19:42:18.667Z,-2.40
2024-01-16T19:47:42.125Z,-2.50
2024-01-16T19:53:04.197Z,-2.60
2024-01-16T19:58:25.717Z,-2.60
2024-01-16T20:03:47.334Z,-2.70
2024-01-16T20:09:09.086Z,-2.80
2024-01-16T20:14:30.774Z,-2.90
2024-01-16T20:19:52.334Z,-2.90
2024-01-16T20:25:14.099Z,-3.00
2024-01-16T20:30:37.240Z,-3.00
2024-01-16T20:35:58.860Z,-3.20
2024-01-16T20:41:20.465Z,-3.20
2024-01-16T20:46:42.162Z,-3.30
2024-01-16T20:52:03.893Z,-3.40
2024-01-16T20:57:25.673Z,-3.50
2024-01-16T21:02:47.328Z,-3.60
2024-01-16T21:08:11.305Z,-3.80
2024-01-16T21:13:33.277Z,-3.90
2024-01-16T21:18:54.830Z,-3.90
2024-01-16T21:24:16.361Z,-4.00
2024-01-16T21:29:40.233Z,-4.20
2024-01-16T21:35:02.081Z,-4.20
2024-01-16T21:40:23.757Z,-4.30
2024-01-16T21:45:45.390Z,-4.40
2024-01-16T21:51:06.880Z,-4.50
2024-01-16T21:56:29.276Z,-4.50
2024-01-16T22:01:50.644Z,-4.70
2024-01-16T22:07:12.279Z,-4.90
2024-01-16T22:12:34.384Z,-5.00
2024-01-16T22:17:58.081Z,-5.10
2024-01-16T22:23:19.797Z,-5.20
2024-01-16T22:28:47.169Z,-5.30
2024-01-16T22:34:09.007Z,-5.30
2024-01-16T22:39:30.567Z,-5.40
2024-01-16T22:44:52.244Z,-5.50
2024-01-16T22:50:13.904Z,-5.50
2024-01-16T22:55:35.943Z,-5.60
2024-01-16T23:00:57.439Z,-5.60
2024-01-16T23:06:22.424Z,-5.60
2024-01-16T23:11:44.142Z,-5.70
2024-01-16T23:17:05.869Z,-5.80
2024-01-16T23:22:28.221Z,-6.00
2024-01-16T23:27:50.942Z,-6.10
2024-01-16T23:33:12.747Z,-6.20
2024-01-16T23:38:37.454Z,-6.30
2024-01-16T23:43:58.884Z,-6.40
2024-01-16T23:49:22.138Z,-6.50
2024-01-16T23:54:43.667Z,-6.70
